Latest Coastal Weather Observations for Charles Point

IDD60701

Issued at 7:01 pm CST Thursday 19 April 2018 (issued every 10 minutes, with the page automatically refreshed every 10 minutes)

About coastal observations | Map of coastal stations | Coastal observations for NT | Marine services | Other Formats
Station Details ID: 014031 Name: CHARLES POINT Lat: -12.39 Lon: 130.63 Height: 14.0 m
Data from the previous 72 hours. | See also: Recent months for locations in Northern Territory
Date/Time
CST
Temp
°C
Wind Pressure Rain since
9am
mm
Weather Cloud Vis
km
Sea
Height
m
Swell
Dir  Spd
kts
Gust
kts
hPa Trend Height
m
Period
s
Dir
19/07:00pm 30.4 NE 11 15 1008.7 - 0.2 - - - - - - -
19/06:30pm 30.6 NE 7 10 1008.4 - 0.2 - - - - - - -
19/06:00pm 30.9 NE 6 8 1008.3 - 0.2 - - - - - - -
19/05:30pm 31.5 NE 6 10 1008.2 - 0.2 - - - - - - -
19/05:00pm 31.9 ENE 6 9 1008.0 - 0.2 - - - - - - -
19/04:30pm 31.8 NE 9 12 1008.0 - 0.2 - - - - - - -
19/04:00pm 32.7 ENE 5 9 1007.9 - 0.2 - - - - - - -
19/03:30pm 32.4 ENE 8 12 1008.2 - 0.2 - - - - - - -
19/03:00pm 32.6 NE 8 12 1008.4 - 0.2 - - - - - - -
19/02:30pm 32.1 NE 9 13 1008.6 - 0.2 - - - - - - -
19/02:00pm 32.1 NE 6 10 1008.7 - 0.2 - - - - - - -
19/01:30pm 31.9 NE 6 9 1009.0 - 0.2 - - - - - - -
19/01:00pm 31.7 ENE 6 9 1009.3 - 0.2 - - - - - - -
19/12:30pm 31.4 ENE 5 9 1009.8 - 0.2 - - - - - - -
19/12:00pm 31.2 ENE 7 12 1010.3 - 0.2 - - - - - - -
19/11:30am 31.1 ENE 5 10 1010.7 - 0.2 - - - - - - -
19/11:00am 29.6 E 5 10 1010.8 - 0.2 - - - - - - -
19/10:30am 29.5 E 6 11 1011.1 - 0.2 - - - - - - -
19/10:00am 29.1 ESE 6 9 1011.2 - 0.2 - - - - - - -
19/09:30am 28.6 ESE 6 10 1011.1 - 0.0 - - - - - - -
19/09:00am 28.0 ESE 5 9 1010.9 - 5.6 - - - - - - -
19/08:30am 26.7 SE 4 6 1010.5 - 5.6 - - - - - - -
19/08:00am 25.5 S 5 7 1010.4 - 5.6 - - - - - - -
19/07:30am 24.9 SSE 3 5 1010.3 - 5.6 - - - - - - -
19/07:00am 24.4 SSE 3 5 1009.8 - 5.6 - - - - - - -
19/06:30am 24.3 S 5 8 1009.7 - 5.6 - - - - - - -
19/06:00am 24.4 S 5 7 1009.6 - 5.6 - - - - - - -
19/05:30am 24.5 S 4 6 1009.3 - 5.6 - - - - - - -
19/05:00am 24.8 S 3 5 1009.5 - 5.6 - - - - - - -
19/04:30am 25.1 SSE 2 3 1009.4 - 5.6 - - - - - - -
19/04:00am 25.5 SSE 4 7 1009.6 - 5.6 - - - - - - -
19/03:30am 26.2 ESE 5 7 1009.6 - 5.6 - - - - - - -
19/03:00am 26.3 ESE 7 13 1009.8 - 5.6 Recent precip. - - - - - -
19/02:30am 26.3 E 8 12 1010.0 - 5.6 - - - - - - -
19/02:00am 26.1 ENE 9 15 1010.1 - 4.4 - - - - - - -
19/01:30am 28.5 NE 5 7 1009.9 - 0.4 - - - - - - -
19/01:00am 27.6 E 4 11 1010.4 - 0.4 - - - - - - -
19/12:30am 29.2 N 12 14 1010.4 - 0.0 - - - - - - -
19/12:00am 29.4 N 12 14 1010.6 - 0.0 - - - - - - -
 
Date/Time
CST
Temp
°C
Wind Pressure Rain since
9am
mm
Weather Cloud Vis
km
Sea
Height
m
Swell
Dir  Spd
kts
Gust
kts
hPa Trend Height
m
Period
s
Dir
18/11:30pm 29.4 N 9 11 1010.6 - 0.0 - - - - - - -
18/11:00pm 29.6 N 8 10 1010.7 - 0.0 - - - - - - -
18/10:30pm 29.9 N 9 11 1010.6 - 0.0 - - - - - - -
18/10:00pm 29.9 NNW 8 12 1010.5 - 0.0 - - - - - - -
18/09:30pm 30.3 N 10 13 1010.3 - 0.0 - - - - - - -
18/09:00pm 31.0 NNE 7 9 1010.2 - 0.0 - - - - - - -
18/08:30pm 30.8 NNE 6 10 1009.9 - 0.0 - - - - - - -
18/08:00pm 30.6 NNE 7 9 1009.3 - 0.0 - - - - - - -
18/07:30pm 30.7 NNE 7 9 1009.0 - 0.0 - - - - - - -
18/07:00pm 30.7 N 7 8 1008.6 - 0.0 - - - - - - -
18/06:30pm 30.7 N 7 9 1008.4 - 0.0 - - - - - - -
18/06:00pm 31.0 N 6 8 1008.1 - 0.0 - - - - - - -
18/05:30pm 31.3 N 5 7 1007.9 - 0.0 - - - - - - -
18/05:00pm 31.2 N 6 7 1007.7 - 0.0 - - - - - - -
18/04:30pm 31.6 N 4 5 1007.8 - 0.0 - - - - - - -
18/04:00pm 32.2 NE 3 5 1007.7 - 0.0 - - - - - - -
18/03:30pm 32.4 NE 6 9 1007.6 - 0.0 - - - - - - -
18/03:00pm 32.0 NNE 7 11 1007.8 - 0.0 - - - - - - -
18/02:30pm 32.0 NNE 7 10 1008.3 - 0.0 - - - - - - -
18/02:00pm 31.8 N 7 9 1008.7 - 0.0 - - - - - - -
18/01:30pm 32.6 N 5 7 1008.9 - 0.0 - - - - - - -
18/01:00pm 31.5 N 5 7 1009.4 - 0.0 - - - - - - -
18/12:30pm 31.6 N 4 6 1010.0 - 0.0 - - - - - - -
18/12:00pm 32.0 N 4 5 1010.5 - 0.0 - - - - - - -
18/11:30am 31.9 NE 3 4 1010.9 - 0.0 - - - - - - -
18/11:00am 31.3 NNE 3 3 1011.3 - 0.0 - - - - - - -
18/10:30am 31.5 NNE 3 4 1011.5 - 0.0 - - - - - - -
18/10:00am 30.8 N 3 5 1011.5 - 0.0 - - - - - - -
18/09:30am 30.2 NNE 4 6 1011.4 - 0.0 - - - - - - -
18/09:00am 29.9 N 5 7 1011.2 - 0.0 - - - - - - -
18/08:30am 29.7 N 4 6 1011.1 - 0.0 - - - - - - -
18/08:00am 29.3 N 4 6 1010.8 - 0.0 - - - - - - -
18/07:30am 28.9 NNE 5 7 1010.6 - 0.0 - - - - - - -
18/07:00am 28.7 NNE 8 14 1010.4 - 0.0 - - - - - - -
18/06:30am 27.6 ESE 3 5 1009.9 - 0.0 - - - - - - -
18/06:00am 26.1 SSW 2 2 1009.8 - 0.0 - - - - - - -
18/05:30am 26.0 SSW 2 3 1009.7 - 0.0 - - - - - - -
18/05:00am 26.5 SW 1 1 1009.6 - 0.0 - - - - - - -
18/04:30am 26.3 SW 1 2 1009.6 - 0.0 - - - - - - -
18/04:00am 26.3 SW 1 2 1009.6 - 0.0 - - - - - - -
18/03:30am 26.4 SW 2 3 1009.5 - 0.0 - - - - - - -
18/03:00am 26.9 WSW 2 3 1009.9 - 0.0 - - - - - - -
18/02:30am 27.5 WSW 2 3 1009.8 - 0.0 - - - - - - -
18/02:00am 27.9 WSW 2 3 1010.0 - 0.0 - - - - - - -
18/01:30am 27.6 WSW 2 4 1010.3 - 0.0 - - - - - - -
18/01:00am 27.0 W 2 3 1010.5 - 0.0 - - - - - - -
18/12:30am 27.6 W 2 3 1010.6 - 0.0 - - - - - - -
18/12:00am 27.7 WSW 2 4 1010.7 - 0.0 - - - - - - -
 
Date/Time
CST
Temp
°C
Wind Pressure Rain since
9am
mm
Weather Cloud Vis
km
Sea
Height
m
Swell
Dir  Spd
kts
Gust
kts
hPa Trend Height
m
Period
s
Dir
17/11:30pm 27.3 WSW 2 3 1010.9 - 0.0 - - - - - - -
17/11:00pm 27.6 SW 2 4 1011.0 - 0.0 - - - - - - -
17/10:30pm 27.5 WSW 2 3 1010.8 - 0.0 - - - - - - -
17/10:00pm 27.7 SW 2 3 1011.0 - 0.0 - - - - - - -
17/09:30pm 27.8 WSW 2 3 1010.8 - 0.0 - - - - - - -
17/09:00pm 27.9 WSW 2 4 1010.5 - 0.0 - - - - - - -
17/08:30pm 27.9 SW 2 4 1010.2 - 0.0 - - - - - - -
17/08:00pm 28.3 WSW 2 4 1009.7 - 0.0 - - - - - - -
17/07:30pm 28.5 W 2 3 1009.4 - 0.0 - - - - - - -
17/07:00pm 29.1 WNW 2 3 1009.2 - 0.0 - - - - - - -
17/06:30pm 31.0 NNW 3 6 1009.0 - 0.0 - - - - - - -
17/06:00pm 31.5 NNW 6 8 1008.8 - 0.0 - - - - - - -
17/05:30pm 31.9 NNW 6 9 1008.5 - 0.0 - - - - - - -
17/05:00pm 34.8 ESE 2 3 1008.1 - 0.0 - - - - - - -
17/04:30pm 34.7 SE 4 8 1008.0 - 0.0 - - - - - - -
17/04:00pm 34.6 ESE 5 9 1008.0 - 0.0 - - - - - - -
17/03:30pm 35.0 E 5 9 1008.3 - 0.0 - - - - - - -
17/03:00pm 34.6 E 6 10 1008.6 - 0.0 - - - - - - -
17/02:30pm 34.3 ESE 7 11 1009.0 - 0.0 - - - - - - -
17/02:00pm 34.7 ESE 8 13 1009.2 - 0.0 - - - - - - -
17/01:30pm 34.5 NE 5 8 1009.5 - 0.0 - - - - - - -
17/01:00pm 33.7 NE 6 9 1009.7 - 0.0 - - - - - - -
17/12:30pm 33.9 NE 5 8 1010.1 - 0.0 - - - - - - -
17/12:00pm 33.2 E 5 10 1010.5 - 0.0 - - - - - - -
17/11:30am 32.6 E 4 8 1010.9 - 0.0 - - - - - - -
17/11:00am 32.1 E 5 7 1011.2 - 0.0 - - - - - - -
17/10:30am 31.9 ESE 4 9 1011.4 - 0.0 - - - - - - -
17/10:00am 31.4 ESE 5 10 1011.6 - 0.0 - - - - - - -
17/09:30am 30.6 ESE 4 8 1011.6 - 0.0 - - - - - - -
17/09:00am 29.8 SSE 3 5 1011.5 - 0.0 - - - - - - -
17/08:30am 28.7 S 3 5 1011.4 - 0.0 - - - - - - -
17/08:00am 27.2 S 4 6 1011.3 - 0.0 - - - - - - -
17/07:30am 26.1 S 4 6 1010.9 - 0.0 - - - - - - -
17/07:00am 25.9 SSE 4 6 1010.6 - 0.0 - - - - - - -
17/06:30am 25.6 S 3 5 1010.4 - 0.0 - - - - - - -
17/06:00am 25.0 SSE 3 3 1010.0 - 0.0 - - - - - - -
17/05:30am 25.0 CALM 0 0 1009.9 - 0.0 - - - - - - -
17/05:00am 25.6 NE 1 3 1009.9 - 0.0 - - - - - - -
17/04:30am 26.8 N 1 3 1009.9 - 0.0 - - - - - - -
17/04:00am 29.1 NNE 4 6 1009.9 - 0.0 - - - - - - -
17/03:30am 25.8 NNE 1 4 1009.8 - 0.0 - - - - - - -
17/03:00am 26.3 CALM 0 2 1010.0 - 0.0 - - - - - - -
17/02:30am 25.6 S 1 1 1010.2 - 0.0 - - - - - - -
17/02:00am 25.8 CALM 0 0 1010.4 - 0.0 - - - - - - -
17/01:30am 25.9 CALM 0 0 1010.6 - 0.0 - - - - - - -
17/01:00am 26.1 CALM 0 0 1010.6 - 0.0 - - - - - - -
17/12:30am 26.4 SSW 1 1 1010.7 - 0.0 - - - - - - -
17/12:00am 26.6 SSW 1 1 1010.8 - 0.0 - - - - - - -
 
Date/Time
CST
Temp
°C
Wind Pressure Rain since
9am
mm
Weather Cloud Vis
km
Sea
Height
m
Swell
Dir  Spd
kts
Gust
kts
hPa Trend Height
m
Period
s
Dir
16/11:30pm 26.6 SSW 2 3 1010.6 - 0.0 - - - - - - -
16/11:00pm 26.6 SSE 4 5 1010.7 - 0.0 - - - - - - -
16/10:30pm 26.1 CALM 0 0 1010.4 - 0.0 - - - - - - -
16/10:00pm 26.7 CALM 0 0 1010.4 - 0.0 - - - - - - -
16/09:30pm 27.3 CALM 0 0 1010.3 - 0.0 - - - - - - -
16/09:00pm 28.2 CALM 0 0 1009.9 - 0.0 - - - - - - -
16/08:30pm 29.3 NE 1 3 1009.5 - 0.0 - - - - - - -
16/08:00pm 30.8 NE 5 7 1009.1 - 0.0 - - - - - - -
16/07:30pm 30.9 NNE 5 7 1008.8 - 0.0 - - - - - - -

Other Formats:

Comma delimited format used in spreadsheet applications
http://www.bom.gov.au/fwo/IDD60701/IDD60701.99510.axf

JavaScript Object Notation format (JSON) in row-major order
http://www.bom.gov.au/fwo/IDD60701/IDD60701.99510.json